Time;durP1;ratioP1;P1;durP2;ratioP2;P2;SDS_P1;SDS_P2;PMS_P1;PMS_P2;Temp;Humidity;BMP_temperature;BMP_pressure;BME280_temperature;BME280_humidity;BME280_pressure;Samples;Min_cycle;Max_cycle;Signal;HPM_P1;HPM_P2
2022/03/25 00:01:21;;;;;;;18.33;7.50;;;;;;;10.19;33.36;94984.03;5080634;28;20202;-74
2022/03/25 00:03:48;;;;;;;12.80;7.57;;;;;;;10.32;33.31;94972.25;5069914;28;20211;-74
2022/03/25 00:06:15;;;;;;;13.48;7.85;;;;;;;10.32;32.45;94975.75;5061097;28;20663;-74
2022/03/25 00:08:41;;;;;;;15.68;9.25;;;;;;;10.41;32.50;94967.63;5084671;28;20285;-75
2022/03/25 00:11:08;;;;;;;20.77;10.88;;;;;;;10.52;32.73;94960.78;5080809;28;20228;-74
2022/03/25 00:13:35;;;;;;;20.13;9.23;;;;;;;10.51;32.65;94959.22;5077125;28;20206;-75
2022/03/25 00:16:04;;;;;;;14.50;8.13;;;;;;;10.45;32.19;94955.06;5079683;28;20260;-75
2022/03/25 00:18:33;;;;;;;13.65;7.82;;;;;;;10.41;32.67;94962.22;5084391;28;20226;-73
2022/03/25 00:21:00;;;;;;;12.48;6.80;;;;;;;10.44;32.05;94952.66;5082313;28;20213;-74
2022/03/25 00:23:27;;;;;;;10.02;6.47;;;;;;;10.47;32.80;94957.44;5072152;28;20195;-74
2022/03/25 00:25:54;;;;;;;11.52;6.88;;;;;;;10.50;32.04;94952.19;5082067;28;20206;-74
2022/03/25 00:28:21;;;;;;;12.13;6.60;;;;;;;10.57;32.04;94947.09;5076953;28;20806;-74
2022/03/25 00:30:48;;;;;;;9.82;6.50;;;;;;;10.50;32.50;94951.41;5078097;28;20199;-74
2022/03/25 00:33:15;;;;;;;15.65;6.43;;;;;;;10.50;32.14;94952.19;5083789;28;20559;-73
2022/03/25 00:35:44;;;;;;;12.93;6.10;;;;;;;10.52;32.50;94936.41;5083530;28;20290;-74
2022/03/25 00:38:11;;;;;;;12.65;6.15;;;;;;;10.47;32.38;94942.00;5078166;28;20198;-75
2022/03/25 00:40:38;;;;;;;16.75;6.53;;;;;;;10.52;32.17;94933.69;5078077;28;20206;-74
2022/03/25 00:43:05;;;;;;;12.25;6.10;;;;;;;10.60;32.70;94935.63;5065119;28;20198;-74
2022/03/25 00:45:32;;;;;;;13.35;6.65;;;;;;;10.62;33.00;94930.69;5090244;28;20218;-74
2022/03/25 00:47:59;;;;;;;12.18;6.70;;;;;;;10.54;32.45;94926.06;5077852;28;20234;-73
2022/03/25 00:50:26;;;;;;;11.35;6.25;;;;;;;10.61;32.37;94926.38;5076770;28;20317;-74
2022/03/25 00:52:55;;;;;;;11.30;6.13;;;;;;;10.56;32.61;94921.13;5090857;28;20198;-74
2022/03/25 00:55:22;;;;;;;12.75;6.65;;;;;;;10.66;32.33;94926.19;5077237;28;20207;-73
2022/03/25 00:57:49;;;;;;;13.60;6.85;;;;;;;10.63;31.84;94913.31;5082265;28;20231;-74
2022/03/25 01:00:15;;;;;;;13.25;7.13;;;;;;;10.58;32.36;94910.75;5083879;28;20320;-74
2022/03/25 01:02:43;;;;;;;13.32;6.35;;;;;;;10.71;32.05;94913.59;5078764;28;20199;-76
2022/03/25 01:05:10;;;;;;;10.15;5.97;;;;;;;10.58;32.11;94909.97;5077413;28;20199;-74
2022/03/25 01:07:37;;;;;;;11.48;6.07;;;;;;;10.66;31.88;94918.06;5081042;28;20223;-74
2022/03/25 01:10:07;;;;;;;10.75;5.70;;;;;;;10.65;31.58;94916.50;5083550;28;20701;-74
2022/03/25 01:12:33;;;;;;;10.82;6.38;;;;;;;10.64;31.89;94919.53;5080375;28;20201;-76
2022/03/25 01:15:00;;;;;;;12.10;6.13;;;;;;;10.73;31.79;94917.59;5076687;28;20223;-73
2022/03/25 01:17:28;;;;;;;10.00;5.93;;;;;;;10.64;32.04;94919.53;5079964;28;20573;-76
2022/03/25 01:19:55;;;;;;;11.45;6.15;;;;;;;10.63;32.30;94913.31;5087448;28;20336;-75
2022/03/25 01:22:22;;;;;;;9.48;5.57;;;;;;;10.60;31.92;94915.84;5080261;28;20206;-75
2022/03/25 01:24:48;;;;;;;14.50;6.40;;;;;;;10.73;32.25;94914.09;5077879;28;20194;-76
2022/03/25 01:27:17;;;;;;;10.32;5.85;;;;;;;10.68;32.02;94921.25;5083133;28;20230;-75
2022/03/25 01:29:44;;;;;;;9.07;5.68;;;;;;;10.73;31.33;94916.78;5087042;28;20238;-75
2022/03/25 01:32:12;;;;;;;11.65;5.70;;;;;;;10.83;31.69;94919.16;5062172;28;20234;-73
2022/03/25 01:34:39;;;;;;;10.75;6.13;;;;;;;10.74;32.19;94915.69;5076228;28;20206;-74
2022/03/25 01:37:06;;;;;;;9.70;5.88;;;;;;;10.71;32.18;94908.19;5082516;28;20589;-74
2022/03/25 01:39:33;;;;;;;10.38;5.80;;;;;;;10.72;31.51;94898.94;5087113;28;20681;-74
2022/03/25 01:42:00;;;;;;;17.75;6.07;;;;;;;10.68;31.33;94907.72;5073504;28;20203;-74
2022/03/25 01:44:30;;;;;;;11.38;5.32;;;;;;;10.61;31.49;94917.44;5087173;28;20195;-74
2022/03/25 01:46:59;;;;;;;8.80;6.07;;;;;;;10.61;31.84;94920.16;5085346;28;20230;-73
2022/03/25 01:49:26;;;;;;;12.60;5.90;;;;;;;10.59;31.84;94915.06;5079374;28;20201;-74
2022/03/25 01:51:56;;;;;;;9.70;4.95;;;;;;;10.65;31.75;94916.50;5081229;28;20191;-76
2022/03/25 01:54:25;;;;;;;13.68;6.30;;;;;;;10.53;32.02;94919.03;5087159;28;20207;-73
2022/03/25 01:56:56;;;;;;;12.10;5.78;;;;;;;10.43;32.38;94924.78;5086189;28;20245;-72
2022/03/25 01:59:23;;;;;;;11.77;6.22;;;;;;;10.29;32.51;94929.56;5066967;28;20285;-73
2022/03/25 02:01:54;;;;;;;10.50;5.68;;;;;;;10.21;32.92;94933.88;5079477;28;20194;-74
2022/03/25 02:04:21;;;;;;;10.57;6.25;;;;;;;10.10;33.24;94926.34;5093050;28;20202;-72
2022/03/25 02:06:48;;;;;;;9.48;6.25;;;;;;;10.01;33.40;94930.94;5077725;28;20230;-74
2022/03/25 02:09:15;;;;;;;9.15;6.03;;;;;;;9.87;33.48;94921.03;5060338;28;20284;-74
2022/03/25 02:11:43;;;;;;;10.68;6.25;;;;;;;9.76;33.97;94918.94;5086520;28;20217;-74
2022/03/25 02:14:11;;;;;;;9.75;5.63;;;;;;;9.71;33.80;94930.69;5081606;28;20218;-74
2022/03/25 02:16:40;;;;;;;12.90;6.30;;;;;;;9.60;34.00;94924.00;5079072;28;20207;-73
2022/03/25 02:19:09;;;;;;;15.45;6.28;;;;;;;9.53;34.54;94929.06;5083766;28;20199;-74
2022/03/25 02:21:44;;;;;;;12.95;6.25;;;;;;;9.49;34.03;94928.09;5086454;28;20205;-73
2022/03/25 02:24:11;;;;;;;11.75;6.15;;;;;;;9.40;34.36;94924.56;5072686;28;20240;-74
2022/03/25 02:26:38;;;;;;;10.70;6.07;;;;;;;9.40;34.48;94919.16;5085751;28;20290;-72
2022/03/25 02:29:07;;;;;;;11.32;6.53;;;;;;;9.35;34.82;94917.41;5083111;28;20226;-74
2022/03/25 02:31:34;;;;;;;15.52;6.75;;;;;;;9.32;34.68;94911.81;5078494;28;20264;-74
2022/03/25 02:34:03;;;;;;;13.77;6.00;;;;;;;9.29;34.52;94907.06;5080832;28;20260;-75
2022/03/25 02:36:30;;;;;;;13.13;6.63;;;;;;;9.26;34.73;94909.25;5085904;28;20206;-74
2022/03/25 02:38:59;;;;;;;12.00;6.18;;;;;;;9.25;35.04;94913.06;5084071;28;20209;-74
2022/03/25 02:41:25;;;;;;;11.27;6.18;;;;;;;9.31;34.36;94908.31;5073564;28;20198;-73
2022/03/25 02:43:52;;;;;;;10.40;6.15;;;;;;;9.29;34.46;94901.66;5058968;28;20203;-73
2022/03/25 02:46:19;;;;;;;15.63;6.70;;;;;;;9.35;34.66;94912.00;5085194;28;20247;-75
2022/03/25 02:48:46;;;;;;;9.77;6.55;;;;;;;9.31;34.54;94915.63;5058471;28;20702;-75
2022/03/25 02:51:13;;;;;;;13.27;6.50;;;;;;;9.35;34.25;94906.59;5078851;28;20226;-73
2022/03/25 02:53:40;;;;;;;11.15;5.68;;;;;;;9.39;33.67;94912.97;5078029;28;20213;-73
2022/03/25 02:56:08;;;;;;;14.73;6.40;;;;;;;9.29;34.52;94910.53;5085179;28;20199;-72
2022/03/25 02:58:35;;;;;;;11.23;6.13;;;;;;;9.48;34.51;94905.66;5085301;28;20226;-72
2022/03/25 03:01:03;;;;;;;10.38;6.50;;;;;;;9.57;33.56;94906.47;5079724;28;20198;-74
2022/03/25 03:03:30;;;;;;;12.57;6.45;;;;;;;9.50;33.79;94900.75;5075809;28;20199;-73
2022/03/25 03:05:57;;;;;;;11.68;6.13;;;;;;;9.58;33.40;94905.38;5059806;28;20199;-74
2022/03/25 03:08:24;;;;;;;11.60;6.43;;;;;;;9.68;33.34;94904.31;5073181;28;20227;-76
2022/03/25 03:10:51;;;;;;;11.98;6.20;;;;;;;9.81;33.13;94903.38;5083144;28;20277;-76
2022/03/25 03:13:20;;;;;;;15.65;6.55;;;;;;;9.78;32.92;94914.81;5085461;28;20223;-74
2022/03/25 03:15:47;;;;;;;11.80;5.95;;;;;;;9.61;33.20;94906.66;5080184;28;20198;-73
2022/03/25 03:18:15;;;;;;;12.35;6.95;;;;;;;9.65;33.36;94910.34;5078467;28;20234;-71
2022/03/25 03:20:42;;;;;;;12.10;6.35;;;;;;;9.51;33.54;94920.47;5082394;28;20285;-74
2022/03/25 03:23:10;;;;;;;10.95;5.97;;;;;;;9.49;33.37;94917.28;5086622;28;20191;-72
2022/03/25 03:25:37;;;;;;;12.60;6.72;;;;;;;9.29;34.04;94931.38;5082033;28;20199;-74
2022/03/25 03:28:05;;;;;;;14.23;6.55;;;;;;;9.05;34.71;94923.59;5084569;28;20732;-74
2022/03/25 03:30:33;;;;;;;9.23;6.13;;;;;;;8.86;35.06;94924.66;5080984;28;20222;-72
2022/03/25 03:33:04;;;;;;;9.90;6.30;;;;;;;8.91;34.95;94934.50;5071187;28;20200;-73
2022/03/25 03:35:32;;;;;;;13.60;6.65;;;;;;;8.75;35.43;94930.59;5073153;28;20218;-74
2022/03/25 03:37:59;;;;;;;12.73;6.68;;;;;;;8.69;35.47;94937.22;5077611;28;20207;-74
2022/03/25 03:40:26;;;;;;;11.75;6.65;;;;;;;8.68;35.70;94932.94;5080074;28;20218;-74
2022/03/25 03:42:53;;;;;;;12.13;6.57;;;;;;;8.65;35.39;94920.03;5070746;28;20203;-72
2022/03/25 03:45:20;;;;;;;9.43;5.10;;;;;;;8.61;35.58;94924.47;5058014;28;20231;-75
2022/03/25 03:47:49;;;;;;;9.45;3.67;;;;;;;8.59;35.74;94926.69;5083735;28;21022;-74
2022/03/25 03:50:18;;;;;;;9.70;5.13;;;;;;;8.50;36.29;94932.81;5083923;28;20230;-75
2022/03/25 03:52:45;;;;;;;6.72;3.78;;;;;;;8.51;35.71;94926.31;5077712;28;20211;-72
2022/03/25 03:55:12;;;;;;;9.10;3.97;;;;;;;8.51;35.85;94926.31;5078031;28;20203;-73
2022/03/25 03:57:40;;;;;;;6.57;3.10;;;;;;;8.45;35.94;94924.84;5084551;28;20644;-73
2022/03/25 04:00:10;;;;;;;13.02;4.97;;;;;;;8.47;36.59;94929.94;5084779;28;20206;-75
2022/03/25 04:02:37;;;;;;;10.50;5.13;;;;;;;8.40;36.36;94921.47;5057831;28;20195;-74
2022/03/25 04:05:07;;;;;;;12.13;6.80;;;;;;;8.49;36.01;94927.72;5083827;28;20198;-77
2022/03/25 04:07:40;;;;;;;7.72;4.95;;;;;;;8.51;36.18;94929.00;5078473;28;20242;-74
2022/03/25 04:10:07;;;;;;;22.30;5.13;;;;;;;8.52;36.02;94933.31;5076551;28;20223;-73
2022/03/25 04:12:34;;;;;;;6.72;4.20;;;;;;;8.47;35.89;94930.72;5081486;28;20199;-74
2022/03/25 04:15:01;;;;;;;5.95;3.00;;;;;;;8.66;35.53;94935.13;5057280;28;20211;-74
2022/03/25 04:17:28;;;;;;;13.38;6.60;;;;;;;8.86;35.15;94931.94;5080034;28;20241;-74
2022/03/25 04:19:55;;;;;;;12.73;6.70;;;;;;;8.76;35.59;94927.56;5077490;28;20249;-76
2022/03/25 04:22:23;;;;;;;12.25;7.22;;;;;;;8.84;35.51;94929.56;5081278;28;20206;-74
2022/03/25 04:24:50;;;;;;;16.90;7.47;;;;;;;8.90;35.10;94922.09;5070120;28;20195;-73
2022/03/25 04:27:16;;;;;;;14.88;6.70;;;;;;;8.97;35.24;94927.88;5079540;28;20229;-74
2022/03/25 04:29:43;;;;;;;7.57;4.03;;;;;;;8.97;34.76;94927.88;5076728;28;20202;-74
2022/03/25 04:32:10;;;;;;;9.32;4.70;;;;;;;8.94;35.33;94928.50;5081233;28;20203;-74
2022/03/25 04:34:37;;;;;;;11.15;4.10;;;;;;;8.96;35.40;94928.97;5084134;28;20657;-74
2022/03/25 04:37:04;;;;;;;8.48;4.20;;;;;;;9.03;35.14;94932.03;5080741;28;20202;-74
2022/03/25 04:39:32;;;;;;;10.60;4.22;;;;;;;9.15;34.54;94934.19;5077329;28;20285;-73
2022/03/25 04:41:59;;;;;;;9.88;4.43;;;;;;;9.38;34.21;94932.19;5068324;28;20196;-71
2022/03/25 04:44:26;;;;;;;6.75;3.97;;;;;;;9.62;34.01;94932.59;5059492;28;20579;-74
2022/03/25 04:46:55;;;;;;;8.73;4.43;;;;;;;9.79;34.33;94924.53;5078659;28;20203;-75
2022/03/25 04:49:22;;;;;;;15.23;5.60;;;;;;;10.04;33.48;94933.00;5083312;28;20326;-75
2022/03/25 04:51:49;;;;;;;12.52;5.32;;;;;;;10.17;33.52;94934.78;5083214;28;20245;-74
2022/03/25 04:54:16;;;;;;;12.02;5.13;;;;;;;10.36;32.92;94938.03;5058042;28;20203;-73
2022/03/25 04:56:44;;;;;;;13.43;7.50;;;;;;;10.42;32.72;94941.34;5084332;28;20225;-75
2022/03/25 04:59:11;;;;;;;9.52;5.47;;;;;;;10.59;32.66;94928.59;5068287;28;20524;-74
2022/03/25 05:01:38;;;;;;;11.05;5.68;;;;;;;10.80;32.34;94934.16;5067685;28;20234;-73
2022/03/25 05:04:05;;;;;;;10.25;5.60;;;;;;;11.16;31.52;94933.78;5087340;28;20203;-74
2022/03/25 05:06:32;;;;;;;14.48;6.43;;;;;;;11.12;31.78;94929.31;5087695;28;20199;-73
2022/03/25 05:08:59;;;;;;;11.25;5.97;;;;;;;11.42;31.45;94933.69;5081080;28;20277;-74
2022/03/25 05:11:26;;;;;;;4.05;3.10;;;;;;;11.62;30.53;94934.88;5080786;28;20286;-74
2022/03/25 05:13:54;;;;;;;14.27;7.47;;;;;;;11.79;30.52;94937.53;5087089;28;20226;-75
2022/03/25 05:16:21;;;;;;;14.85;7.50;;;;;;;12.25;29.75;94938.53;5059851;28;20214;-73
2022/03/25 05:18:48;;;;;;;19.02;8.50;;;;;;;12.47;29.55;94930.06;5081769;28;20696;-73
2022/03/25 05:21:15;;;;;;;16.38;9.15;;;;;;;12.60;29.27;94931.72;5080647;28;20199;-73
2022/03/25 05:23:42;;;;;;;14.52;7.93;;;;;;;12.75;28.78;94924.88;5084868;28;20203;-73
2022/03/25 05:26:09;;;;;;;17.20;8.55;;;;;;;12.91;28.79;94927.75;5086360;28;20291;-73
2022/03/25 05:28:36;;;;;;;14.05;7.35;;;;;;;13.01;28.66;94928.13;5081307;28;20662;-75
2022/03/25 05:31:04;;;;;;;14.90;7.15;;;;;;;13.16;28.29;94934.91;5080100;28;20215;-72
2022/03/25 05:33:31;;;;;;;22.92;7.82;;;;;;;13.37;27.83;94929.41;5084156;28;20203;-74
2022/03/25 05:35:58;;;;;;;11.63;7.53;;;;;;;13.88;27.51;94933.41;5086486;28;20691;-73
2022/03/25 05:38:25;;;;;;;17.75;8.68;;;;;;;14.72;27.05;94926.25;5082917;28;20203;-74
2022/03/25 05:40:52;;;;;;;13.88;8.30;;;;;;;14.32;26.73;94930.88;5075847;28;20260;-74
2022/03/25 05:43:19;;;;;;;14.07;7.93;;;;;;;14.40;26.98;94921.78;5070539;28;20554;-75
2022/03/25 05:45:46;;;;;;;15.60;8.43;;;;;;;14.31;26.98;94929.28;5077361;28;20312;-73
2022/03/25 05:48:14;;;;;;;13.45;7.70;;;;;;;14.60;26.47;94925.50;5081185;28;20276;-73
2022/03/25 05:50:42;;;;;;;18.67;8.10;;;;;;;14.41;26.68;94931.56;5078860;28;20234;-75
2022/03/25 05:53:09;;;;;;;12.23;7.97;;;;;;;14.32;26.69;94937.13;5083990;28;20203;-72
2022/03/25 05:55:36;;;;;;;14.30;7.25;;;;;;;14.28;26.28;94932.69;5086475;28;20227;-71
2022/03/25 05:58:03;;;;;;;18.48;8.80;;;;;;;14.24;27.35;94930.66;5082908;28;20203;-74
2022/03/25 06:00:29;;;;;;;13.82;8.25;;;;;;;14.40;26.77;94932.69;5079480;28;20206;-73
2022/03/25 06:02:56;;;;;;;11.50;7.38;;;;;;;15.00;25.99;94929.00;5083782;28;20612;-73
2022/03/25 06:05:26;;;;;;;16.92;7.38;;;;;;;14.33;26.67;94935.19;5059782;28;20207;-73
2022/03/25 06:07:52;;;;;;;12.63;7.50;;;;;;;14.58;26.43;94928.56;5082575;28;20701;-72
2022/03/25 06:10:19;;;;;;;15.20;7.93;;;;;;;14.80;25.97;94932.69;5071839;28;20218;-72
2022/03/25 06:12:46;;;;;;;18.85;8.32;;;;;;;14.66;26.88;94929.56;5074031;28;20615;-74
2022/03/25 06:15:14;;;;;;;15.55;7.78;;;;;;;15.44;25.46;94937.97;5079921;28;20202;-75
2022/03/25 06:17:45;;;;;;;17.10;8.38;;;;;;;15.43;25.45;94930.13;5082192;28;20285;-74
2022/03/25 06:20:13;;;;;;;14.88;7.95;;;;;;;15.33;25.15;94934.16;5086027;28;20715;-75
2022/03/25 06:22:42;;;;;;;16.77;8.38;;;;;;;15.21;25.63;94934.22;5084478;28;20288;-77
2022/03/25 06:25:11;;;;;;;19.30;8.85;;;;;;;15.71;24.69;94941.03;5086531;28;20760;-76
2022/03/25 06:27:46;;;;;;;18.42;8.75;;;;;;;15.90;25.24;94938.34;5085586;28;20226;-75
2022/03/25 06:30:14;;;;;;;18.83;9.27;;;;;;;16.01;24.90;94939.41;5084841;28;20313;-74
2022/03/25 06:32:41;;;;;;;15.18;8.30;;;;;;;16.33;24.82;94949.16;5086057;28;20289;-78
2022/03/25 06:35:08;;;;;;;25.67;9.25;;;;;;;16.00;24.59;94943.28;5080218;28;20313;-76
2022/03/25 06:37:35;;;;;;;23.02;9.20;;;;;;;16.11;24.63;94938.09;5063350;28;20208;-75
2022/03/25 06:40:05;;;;;;;15.77;9.68;;;;;;;15.98;24.63;94945.59;5059733;28;20207;-74
2022/03/25 06:42:32;;;;;;;18.40;9.20;;;;;;;16.04;24.41;94933.22;5072492;28;20199;-75
2022/03/25 06:44:59;;;;;;;17.55;9.63;;;;;;;15.84;24.85;94948.78;5081244;28;20225;-72
2022/03/25 06:47:26;;;;;;;14.48;9.00;;;;;;;16.25;24.46;94944.69;5079024;28;20207;-75
2022/03/25 06:49:53;;;;;;;14.40;7.90;;;;;;;15.75;25.04;94947.34;5082598;28;20250;-75
2022/03/25 06:52:21;;;;;;;19.65;10.43;;;;;;;16.26;24.75;94951.72;5085554;28;20662;-75
2022/03/25 06:54:48;;;;;;;17.20;10.75;;;;;;;15.92;26.46;94950.53;5081707;28;20254;-74
2022/03/25 06:57:18;;;;;;;24.55;10.85;;;;;;;15.55;25.64;94950.00;5078753;28;20555;-75
2022/03/25 06:59:45;;;;;;;14.52;10.18;;;;;;;15.69;25.03;94948.78;5081941;28;20677;-75
2022/03/25 07:02:15;;;;;;;20.58;10.65;;;;;;;16.58;24.38;94946.16;5085060;28;20220;-73
2022/03/25 07:04:43;;;;;;;23.73;11.73;;;;;;;16.31;24.36;94954.19;5060725;28;20624;-73
2022/03/25 07:07:11;;;;;;;20.95;9.57;;;;;;;15.87;25.02;94939.06;5082747;28;20223;-73
2022/03/25 07:09:38;;;;;;;22.00;12.43;;;;;;;16.30;24.89;94949.06;5082610;28;20234;-73
2022/03/25 07:12:06;;;;;;;29.38;13.10;;;;;;;16.16;25.51;94957.72;5077793;28;20226;-75
2022/03/25 07:14:34;;;;;;;21.98;12.23;;;;;;;16.34;24.95;94958.16;5079954;28;20731;-77
2022/03/25 07:17:01;;;;;;;28.15;13.13;;;;;;;15.67;25.28;94964.72;5085110;28;20210;-76
2022/03/25 07:19:28;;;;;;;21.15;12.00;;;;;;;15.27;25.96;94960.94;5083467;28;20202;-76
2022/03/25 07:21:55;;;;;;;29.13;12.32;;;;;;;15.34;26.99;94959.50;5077384;28;20203;-73
2022/03/25 07:24:23;;;;;;;18.65;11.35;;;;;;;15.38;26.04;94961.22;5079714;28;20210;-75
2022/03/25 07:26:50;;;;;;;19.63;11.07;;;;;;;15.29;26.35;94953.19;5051745;28;20262;-75
2022/03/25 07:29:17;;;;;;;21.80;11.18;;;;;;;14.81;26.91;94956.09;5076791;28;20629;-76
2022/03/25 07:31:45;;;;;;;18.50;10.52;;;;;;;14.99;26.20;94962.06;5085589;28;20207;-73
2022/03/25 07:34:12;;;;;;;30.70;10.85;;;;;;;14.81;27.75;94965.09;5084222;28;20554;-75
2022/03/25 07:36:39;;;;;;;26.73;12.07;;;;;;;14.57;27.51;94959.69;5064747;28;20734;-77
2022/03/25 07:39:06;;;;;;;16.20;10.00;;;;;;;14.56;26.79;94953.44;5077803;28;20218;-74
2022/03/25 07:41:34;;;;;;;22.02;10.70;;;;;;;15.08;27.04;94968.16;5083609;28;20569;-75
2022/03/25 07:44:01;;;;;;;20.35;10.65;;;;;;;15.01;26.92;94952.41;5085087;28;20237;-75
2022/03/25 07:46:28;;;;;;;19.45;11.35;;;;;;;15.30;27.21;94964.91;5079243;28;20206;-74
2022/03/25 07:48:57;;;;;;;25.98;11.05;;;;;;;15.06;29.06;94970.44;5077569;28;20227;-74
2022/03/25 07:51:24;;;;;;;21.10;11.30;;;;;;;14.70;27.39;94963.97;5082358;28;20233;-74
2022/03/25 07:53:51;;;;;;;24.80;11.88;;;;;;;14.80;27.17;94963.50;5084755;28;20195;-71
2022/03/25 07:56:18;;;;;;;19.13;10.63;;;;;;;14.90;27.49;94973.91;5079574;28;20259;-76
2022/03/25 07:58:44;;;;;;;22.95;11.25;;;;;;;14.74;27.52;94964.88;5077214;28;20218;-75
2022/03/25 08:01:11;;;;;;;17.73;10.73;;;;;;;14.84;27.50;94961.66;5082097;28;20198;-73
2022/03/25 08:03:38;;;;;;;23.77;8.90;;;;;;;14.56;27.47;94967.09;5084857;28;20206;-72
2022/03/25 08:06:07;;;;;;;19.85;10.70;;;;;;;14.93;27.22;94970.50;5079230;28;20202;-72
2022/03/25 08:08:35;;;;;;;17.25;10.27;;;;;;;14.91;27.13;94961.84;5076434;28;20311;-74
2022/03/25 08:11:03;;;;;;;22.88;10.00;;;;;;;14.85;27.13;94963.25;5081325;28;20238;-71
2022/03/25 08:13:30;;;;;;;19.05;9.40;;;;;;;15.07;27.54;94950.22;5084230;28;20742;-76
2022/03/25 08:15:56;;;;;;;22.08;10.65;;;;;;;15.00;27.78;94960.94;5080623;28;20205;-75
2022/03/25 08:18:24;;;;;;;35.15;11.15;;;;;;;14.80;27.21;94963.50;5077218;28;20611;-76
2022/03/25 08:20:53;;;;;;;19.17;10.02;;;;;;;14.83;26.89;94968.25;5080519;28;20213;-71
2022/03/25 08:28:53;;;;;;;18.33;9.45;;;;;;;14.68;27.32;94971.72;5069049;28;20241;-72
2022/03/25 08:31:21;;;;;;;30.50;11.80;;;;;;;14.78;27.44;94962.25;5076989;28;20231;-70
2022/03/25 08:33:48;;;;;;;23.30;10.60;;;;;;;14.68;27.75;94976.38;5084978;28;20207;-75
2022/03/25 08:36:17;;;;;;;28.92;11.07;;;;;;;14.83;28.46;94981.91;5088107;28;20207;-76
2022/03/25 08:38:46;;;;;;;37.38;11.48;;;;;;;15.07;27.37;94958.38;5085325;28;20201;-75
2022/03/25 08:41:15;;;;;;;18.02;9.65;;;;;;;14.55;27.62;94934.72;5076107;28;20685;-74
2022/03/25 08:43:42;;;;;;;24.35;8.93;;;;;;;14.64;27.16;94957.16;5074540;28;20280;-74
2022/03/25 08:46:10;;;;;;;26.55;10.82;;;;;;;14.79;27.48;94961.91;5087773;28;20578;-75
2022/03/25 08:48:36;;;;;;;24.83;10.23;;;;;;;14.74;27.40;94962.16;5074065;28;20252;-72
2022/03/25 08:51:04;;;;;;;21.75;9.38;;;;;;;14.70;28.27;94955.81;5087649;28;20653;-75
2022/03/25 08:53:31;;;;;;;19.80;7.88;;;;;;;14.70;27.28;94958.53;5087098;28;20600;-74
2022/03/25 08:55:59;;;;;;;23.17;10.35;;;;;;;14.89;26.85;94969.63;5081256;28;20226;-72
2022/03/25 08:58:26;;;;;;;22.40;10.85;;;;;;;14.80;26.62;94959.97;5081072;28;20199;-77
2022/03/25 09:00:53;;;;;;;20.02;10.18;;;;;;;14.96;26.90;94960.81;5087593;28;20666;-73
2022/03/25 09:03:20;;;;;;;21.02;9.50;;;;;;;15.02;26.89;94959.44;5087762;28;20222;-73
2022/03/25 09:05:47;;;;;;;18.70;8.32;;;;;;;14.81;26.65;94950.66;5067197;28;20203;-74
2022/03/25 09:08:15;;;;;;;30.17;9.25;;;;;;;15.12;27.14;94947.25;5080913;28;20241;-75
2022/03/25 09:10:42;;;;;;;21.48;8.85;;;;;;;15.44;26.64;94948.09;5081010;28;20299;-77
2022/03/25 09:13:11;;;;;;;25.55;9.65;;;;;;;15.24;26.22;94944.44;5079915;28;20608;-75
2022/03/25 09:15:38;;;;;;;17.48;8.48;;;;;;;15.39;26.36;94938.22;5061207;28;20286;-77
2022/03/25 09:18:05;;;;;;;16.95;9.32;;;;;;;15.23;26.23;94929.22;5087056;28;20206;-77
2022/03/25 09:20:33;;;;;;;17.92;10.15;;;;;;;15.62;26.35;94933.78;5082249;28;20230;-75
2022/03/25 09:23:00;;;;;;;13.75;7.57;;;;;;;15.61;25.33;94943.13;5078995;28;20203;-72
2022/03/25 09:25:27;;;;;;;20.08;9.45;;;;;;;15.66;25.85;94933.09;5081438;28;20776;-74
2022/03/25 09:27:54;;;;;;;14.32;8.80;;;;;;;15.25;26.50;94916.81;5079942;28;20210;-75
2022/03/25 09:30:23;;;;;;;23.38;9.27;;;;;;;15.43;26.72;94935.59;5085461;28;20234;-75
2022/03/25 09:32:50;;;;;;;18.05;8.93;;;;;;;15.63;26.29;94929.91;5075394;28;20199;-75
2022/03/25 09:35:16;;;;;;;15.10;8.68;;;;;;;15.89;25.32;94920.38;5084597;28;20539;-72
2022/03/25 09:37:46;;;;;;;24.92;9.23;;;;;;;15.69;26.16;94932.38;5086839;28;20205;-76
2022/03/25 09:40:16;;;;;;;17.98;7.38;;;;;;;15.90;25.14;94921.97;5064382;28;20200;-72
2022/03/25 09:42:44;;;;;;;21.75;8.90;;;;;;;15.75;25.53;94933.69;5070039;28;20191;-75
2022/03/25 09:45:15;;;;;;;22.88;8.45;;;;;;;15.63;24.89;94934.56;5083748;28;20206;-74
2022/03/25 09:47:44;;;;;;;16.25;8.63;;;;;;;15.57;25.10;94925.88;5070557;28;20215;-73
2022/03/25 09:50:14;;;;;;;14.73;7.75;;;;;;;15.94;25.08;94920.13;5064738;28;20242;-75
2022/03/25 09:52:42;;;;;;;17.10;8.40;;;;;;;15.80;25.09;94933.44;5086750;28;20261;-73
2022/03/25 09:55:10;;;;;;;14.18;7.80;;;;;;;15.74;24.97;94923.91;5086192;28;20242;-74
2022/03/25 09:57:37;;;;;;;15.50;8.45;;;;;;;15.77;25.17;94928.66;5073327;28;20202;-73
2022/03/25 10:00:07;;;;;;;15.23;8.05;;;;;;;15.87;24.99;94920.72;5072981;28;20653;-74
2022/03/25 10:02:34;;;;;;;12.10;7.75;;;;;;;16.13;24.25;94909.22;5053135;28;20659;-76
2022/03/25 10:05:13;;;;;;;13.70;7.93;;;;;;;16.06;24.26;94920.00;5080347;28;20209;-73
2022/03/25 10:07:44;;;;;;;15.52;7.95;;;;;;;15.84;24.63;94907.00;5081956;28;20595;-72
2022/03/25 10:10:13;;;;;;;17.60;7.90;;;;;;;16.27;23.93;94906.81;5079633;28;20267;-74
2022/03/25 10:12:42;;;;;;;11.77;7.03;;;;;;;16.55;23.23;94905.84;5082033;28;20567;-75
2022/03/25 10:15:20;;;;;;;13.23;7.05;;;;;;;16.38;23.29;94909.81;5086428;28;20207;-72
2022/03/25 10:17:55;;;;;;;12.90;7.20;;;;;;;16.20;22.96;94905.88;5085005;28;20218;-70
2022/03/25 10:20:25;;;;;;;14.23;7.63;;;;;;;16.01;23.48;94912.06;5066503;28;20194;-75
2022/03/25 10:23:01;;;;;;;14.13;6.97;;;;;;;16.47;23.84;94915.06;5078233;28;20291;-73
2022/03/25 10:25:41;;;;;;;12.23;6.63;;;;;;;16.41;24.22;94909.06;5069834;28;20297;-72
2022/03/25 10:28:19;;;;;;;14.43;6.45;;;;;;;16.43;24.26;94900.53;5079402;28;20237;-72
2022/03/25 10:30:50;;;;;;;15.55;7.95;;;;;;;16.65;23.05;94902.59;5080634;28;20218;-75
2022/03/25 10:33:23;;;;;;;15.57;6.88;;;;;;;16.18;22.89;94906.22;5086183;28;20255;-71
2022/03/25 10:35:59;;;;;;;10.88;7.15;;;;;;;15.92;23.10;94906.00;5086184;28;20647;-76
2022/03/25 10:38:27;;;;;;;14.25;6.40;;;;;;;16.03;23.75;94898.84;5083946;28;20645;-73
2022/03/25 10:40:56;;;;;;;12.15;6.10;;;;;;;16.19;23.13;94879.69;5083478;28;20210;-71
2022/03/25 10:43:24;;;;;;;10.70;5.93;;;;;;;15.81;22.75;94891.31;5070325;28;20755;-73
2022/03/25 10:45:52;;;;;;;10.02;5.43;;;;;;;15.84;23.13;94885.16;5089206;28;20203;-73
2022/03/25 10:48:21;;;;;;;12.02;6.28;;;;;;;16.32;23.57;94897.56;5082130;28;20619;-73
2022/03/25 10:51:04;;;;;;;12.10;7.00;;;;;;;15.71;23.72;94891.84;5078193;28;20248;-74
2022/03/25 10:53:33;;;;;;;18.15;7.07;;;;;;;16.44;23.96;94881.03;5079345;28;20195;-74
2022/03/25 10:56:03;;;;;;;14.50;6.72;;;;;;;16.96;22.59;94874.28;5078183;28;20230;-75
2022/03/25 10:58:30;;;;;;;16.55;6.60;;;;;;;16.37;23.04;94888.28;5078662;28;20597;-73
2022/03/25 11:01:00;;;;;;;12.65;6.93;;;;;;;16.85;22.77;94879.56;5065994;28;20745;-76
2022/03/25 11:03:27;;;;;;;14.43;6.80;;;;;;;16.90;22.24;94884.75;5078122;28;20241;-75
2022/03/25 11:05:54;;;;;;;14.20;6.03;;;;;;;16.68;22.41;94890.91;5084589;28;20210;-73
2022/03/25 11:08:23;;;;;;;11.55;6.15;;;;;;;16.11;22.73;94884.22;5085397;28;20198;-74
2022/03/25 11:10:50;;;;;;;10.68;5.90;;;;;;;16.40;22.56;94879.38;5079203;28;20708;-76
2022/03/25 11:13:18;;;;;;;8.10;4.80;;;;;;;16.20;22.61;94870.34;5078689;28;20199;-74
2022/03/25 11:15:46;;;;;;;15.95;6.18;;;;;;;16.58;22.96;94870.38;5083618;28;20211;-74
2022/03/25 11:18:14;;;;;;;11.02;6.47;;;;;;;16.76;21.83;94870.78;5084822;28;20232;-73
2022/03/25 11:20:42;;;;;;;12.27;5.93;;;;;;;16.67;22.90;94875.69;5080995;28;20198;-73
2022/03/25 11:23:16;;;;;;;12.48;6.60;;;;;;;16.86;23.20;94855.72;5075716;28;20191;-76
2022/03/25 11:25:49;;;;;;;12.18;6.03;;;;;;;17.05;22.28;94861.97;5071352;28;20333;-73
2022/03/25 11:28:19;;;;;;;11.13;6.72;;;;;;;16.94;22.22;94860.97;5084946;28;20219;-73
2022/03/25 11:30:57;;;;;;;7.85;5.43;;;;;;;16.57;22.14;94863.31;5082880;28;20249;-71
2022/03/25 11:33:24;;;;;;;9.95;5.88;;;;;;;16.56;23.14;94860.94;5071218;28;20199;-73
2022/03/25 11:36:13;;;;;;;12.52;6.45;;;;;;;16.53;22.62;94856.22;5084083;28;20202;-74